Nearby METAR Reports

 

LFRV - Vannes-Meucon, FRANCE
Distance from station: NE 28km
Mise à jour: 20/11/2019 22:30
Couvert
Couvert
 Wind from ESE
Vent: ESE 15 km/h
Température: 6°C
Wind Chill: 3°C
Point de rosée: 4°C
Humidité: 87%
Baromètre: 1003 hPa
Clouds: Couvert
Visibility: 10 km
Cloud details: Couvert 427 m
2019/11/20 21:30 LFRV 202130Z AUTO 12008KT 9999 OVC014 06/04 Q1003
LFRZ - Saint - Nazaire / Montoir, FRANCE
Distance from station: SE 64km
Mise à jour: 20/11/2019 22:30
nuageux
nuageux
 Wind from ESE
Vent: ESE 24 km/h
Température: 7°C
Wind Chill: 3°C
Point de rosée: 5°C
Humidité: 87%
Baromètre: 1003 hPa
Clouds: nuageux
Visibility: 10 km
Cloud details: Peu nuageux 884 m
nuageux 2377 m
nuageux 2865 m
2019/11/20 21:30 LFRZ 202130Z AUTO 12013KT 9999 FEW029 BKN078 BKN094 07/05 Q1003 BECMG 4000 -RA
 
LFRH - Lorient / Lann- Bihoué, FRANCE
Distance from station: NO 81km
Mise à jour: 20/11/2019 22:30
Léger crachin, Couvert
Léger crachin, Couvert
 Wind from E
Vent: E 19 km/h
Température: 7°C
Wind Chill: 4°C
Point de rosée: 5°C
Humidité: 87%
Baromètre: 1002 hPa
Résumé: Léger crachin
Clouds: Couvert
Visibility: 10 km
Cloud details: nuageux 396 m
Couvert 610 m
2019/11/20 21:30 LFRH 202130Z AUTO 10010KT 9999 -DZ BKN013 OVC020 07/05 Q1002 TEMPO BKN006
LFRB - Brest - Guipavas, FRANCE
Distance from station: NO 200km
Mise à jour: 20/11/2019 22:30
Orage
Orage
 Wind from ESE
Vent: ESE 24 km/h
Température: 7°C
Wind Chill: 3°C
Point de rosée: 6°C
Humidité: 93%
Baromètre: 1001 hPa
Clouds: Orage
Visibility: 10 km
Cloud details: nuageux 305 m
nuageux 1036 m
nuageux 1341 m
2019/11/20 21:30 LFRB 202130Z AUTO 12013KT 9999 BKN010/// BKN034/// BKN044/// ///CB 07/06 Q1001 TEMPO 3000 RA
 
LFPV - Villacoublay - Vélizy/, FRANCE
Distance from station: NE 450km
Mise à jour: 20/11/2019 22:30
partiellement nuageux
partiellement nuageux
 Wind from E
Vent: E 13 km/h
Température: 2°C
Wind Chill: -1°C
Point de rosée: 1°C
Humidité: 93%
Baromètre: 1008 hPa
Clouds: partiellement nuageux
Visibility: 6 km
2019/11/20 21:30 LFPV 202130Z AUTO 09007KT 6000 NSC 02/01 Q1008 NOSIG
LFRS - Nantes Atlantique, FRANCE
Distance from station: SE 106km
Mise à jour: 20/11/2019 22:30
Clair
Clair
 Wind from ESE
Vent: ESE 17 km/h
Température: 6°C
Wind Chill: 3°C
Point de rosée: 4°C
Humidité: 87%
Baromètre: 1004 hPa
Résumé: Clair
Visibility: greater than 10 km
2019/11/20 21:30 LFRS 202130Z AUTO 12009KT CAVOK 06/04 Q1004 NOSIG